sensor_id;sensor_type;location;lat;lon;timestamp;P1;durP1;ratioP1;P2;durP2;ratioP2
15151;SDS011;7676;50.900;6.234;2022-07-23T00:04:24;6.80;;;6.07;;
15151;SDS011;7676;50.900;6.234;2022-07-23T00:09:26;6.53;;;5.93;;
15151;SDS011;7676;50.900;6.234;2022-07-23T00:14:30;7.33;;;5.63;;
15151;SDS011;7676;50.900;6.234;2022-07-23T00:19:32;7.33;;;5.97;;
15151;SDS011;7676;50.900;6.234;2022-07-23T00:24:35;6.63;;;6.00;;
15151;SDS011;7676;50.900;6.234;2022-07-23T00:29:38;6.77;;;6.07;;
15151;SDS011;7676;50.900;6.234;2022-07-23T00:34:40;6.83;;;6.13;;
15151;SDS011;7676;50.900;6.234;2022-07-23T00:39:42;7.30;;;6.57;;
15151;SDS011;7676;50.900;6.234;2022-07-23T00:44:45;7.97;;;6.87;;
15151;SDS011;7676;50.900;6.234;2022-07-23T00:49:49;6.63;;;6.03;;
15151;SDS011;7676;50.900;6.234;2022-07-23T00:54:51;7.70;;;6.50;;
15151;SDS011;7676;50.900;6.234;2022-07-23T00:59:54;9.53;;;6.90;;
15151;SDS011;7676;50.900;6.234;2022-07-23T01:04:58;7.77;;;6.93;;
15151;SDS011;7676;50.900;6.234;2022-07-23T01:10:01;8.37;;;7.40;;
15151;SDS011;7676;50.900;6.234;2022-07-23T01:15:05;7.47;;;6.87;;
15151;SDS011;7676;50.900;6.234;2022-07-23T01:20:08;8.00;;;6.93;;
15151;SDS011;7676;50.900;6.234;2022-07-23T01:25:11;8.47;;;7.67;;
15151;SDS011;7676;50.900;6.234;2022-07-23T01:30:17;8.90;;;7.37;;
15151;SDS011;7676;50.900;6.234;2022-07-23T01:35:20;9.67;;;8.10;;
15151;SDS011;7676;50.900;6.234;2022-07-23T01:40:24;8.87;;;7.93;;
15151;SDS011;7676;50.900;6.234;2022-07-23T01:45:29;9.10;;;8.20;;
15151;SDS011;7676;50.900;6.234;2022-07-23T01:50:32;8.70;;;7.23;;
15151;SDS011;7676;50.900;6.234;2022-07-23T01:55:54;9.17;;;8.00;;
15151;SDS011;7676;50.900;6.234;2022-07-23T02:00:57;9.23;;;8.33;;
15151;SDS011;7676;50.900;6.234;2022-07-23T02:06:00;10.13;;;9.07;;
15151;SDS011;7676;50.900;6.234;2022-07-23T02:11:03;8.53;;;7.73;;
15151;SDS011;7676;50.900;6.234;2022-07-23T02:16:07;9.23;;;8.30;;
15151;SDS011;7676;50.900;6.234;2022-07-23T02:21:10;10.03;;;8.90;;
15151;SDS011;7676;50.900;6.234;2022-07-23T02:26:12;10.10;;;8.20;;
15151;SDS011;7676;50.900;6.234;2022-07-23T02:31:22;9.83;;;8.77;;
15151;SDS011;7676;50.900;6.234;2022-07-23T02:36:25;11.47;;;9.43;;
15151;SDS011;7676;50.900;6.234;2022-07-23T02:41:28;11.93;;;9.90;;
15151;SDS011;7676;50.900;6.234;2022-07-23T02:46:31;10.77;;;9.27;;
15151;SDS011;7676;50.900;6.234;2022-07-23T02:51:34;10.07;;;9.07;;
15151;SDS011;7676;50.900;6.234;2022-07-23T02:56:40;9.77;;;8.83;;
15151;SDS011;7676;50.900;6.234;2022-07-23T03:01:42;10.50;;;9.60;;
15151;SDS011;7676;50.900;6.234;2022-07-23T03:06:46;10.37;;;9.27;;
15151;SDS011;7676;50.900;6.234;2022-07-23T03:11:48;9.70;;;8.80;;
15151;SDS011;7676;50.900;6.234;2022-07-23T03:16:51;10.93;;;9.50;;
15151;SDS011;7676;50.900;6.234;2022-07-23T03:21:56;11.87;;;9.43;;
15151;SDS011;7676;50.900;6.234;2022-07-23T03:26:59;12.33;;;10.40;;
15151;SDS011;7676;50.900;6.234;2022-07-23T03:32:01;12.03;;;9.60;;
15151;SDS011;7676;50.900;6.234;2022-07-23T03:37:04;10.17;;;9.17;;
15151;SDS011;7676;50.900;6.234;2022-07-23T03:42:12;12.70;;;10.17;;
15151;SDS011;7676;50.900;6.234;2022-07-23T03:47:14;10.50;;;9.50;;
15151;SDS011;7676;50.900;6.234;2022-07-23T03:52:18;10.57;;;8.80;;
15151;SDS011;7676;50.900;6.234;2022-07-23T03:57:21;10.17;;;9.17;;
15151;SDS011;7676;50.900;6.234;2022-07-23T04:02:24;10.37;;;8.93;;
15151;SDS011;7676;50.900;6.234;2022-07-23T04:07:26;9.70;;;8.80;;
15151;SDS011;7676;50.900;6.234;2022-07-23T04:12:29;9.63;;;8.73;;
15151;SDS011;7676;50.900;6.234;2022-07-23T04:17:32;9.33;;;8.40;;
15151;SDS011;7676;50.900;6.234;2022-07-23T04:22:34;8.07;;;7.37;;
15151;SDS011;7676;50.900;6.234;2022-07-23T04:27:38;8.57;;;7.77;;
15151;SDS011;7676;50.900;6.234;2022-07-23T04:32:40;8.23;;;7.53;;
15151;SDS011;7676;50.900;6.234;2022-07-23T04:37:52;8.00;;;7.20;;
15151;SDS011;7676;50.900;6.234;2022-07-23T04:42:55;7.63;;;6.93;;
15151;SDS011;7676;50.900;6.234;2022-07-23T04:47:58;7.73;;;6.97;;
15151;SDS011;7676;50.900;6.234;2022-07-23T04:53:01;7.60;;;6.93;;
15151;SDS011;7676;50.900;6.234;2022-07-23T04:58:03;7.83;;;7.03;;
15151;SDS011;7676;50.900;6.234;2022-07-23T05:03:06;7.30;;;6.70;;
15151;SDS011;7676;50.900;6.234;2022-07-23T05:08:09;6.80;;;6.17;;
15151;SDS011;7676;50.900;6.234;2022-07-23T05:13:16;7.07;;;6.47;;
15151;SDS011;7676;50.900;6.234;2022-07-23T05:18:20;7.17;;;6.67;;
15151;SDS011;7676;50.900;6.234;2022-07-23T05:23:22;7.83;;;7.13;;
15151;SDS011;7676;50.900;6.234;2022-07-23T05:28:26;6.83;;;6.17;;
15151;SDS011;7676;50.900;6.234;2022-07-23T05:33:29;8.53;;;7.27;;
15151;SDS011;7676;50.900;6.234;2022-07-23T05:38:32;8.83;;;7.00;;
15151;SDS011;7676;50.900;6.234;2022-07-23T05:43:37;8.40;;;7.47;;
15151;SDS011;7676;50.900;6.234;2022-07-23T05:48:44;8.17;;;6.70;;
15151;SDS011;7676;50.900;6.234;2022-07-23T05:54:14;7.70;;;7.00;;
15151;SDS011;7676;50.900;6.234;2022-07-23T05:59:17;8.43;;;6.97;;
15151;SDS011;7676;50.900;6.234;2022-07-23T06:04:20;10.03;;;8.90;;
15151;SDS011;7676;50.900;6.234;2022-07-23T06:09:42;10.77;;;9.80;;
15151;SDS011;7676;50.900;6.234;2022-07-23T06:14:45;13.30;;;12.10;;
15151;SDS011;7676;50.900;6.234;2022-07-23T06:19:51;12.17;;;10.97;;
15151;SDS011;7676;50.900;6.234;2022-07-23T06:24:53;12.53;;;11.33;;
15151;SDS011;7676;50.900;6.234;2022-07-23T06:29:56;13.07;;;11.87;;
15151;SDS011;7676;50.900;6.234;2022-07-23T06:34:59;17.90;;;13.03;;
15151;SDS011;7676;50.900;6.234;2022-07-23T06:40:02;15.63;;;14.03;;
15151;SDS011;7676;50.900;6.234;2022-07-23T06:45:11;15.40;;;13.03;;
15151;SDS011;7676;50.900;6.234;2022-07-23T06:50:14;14.43;;;12.93;;
15151;SDS011;7676;50.900;6.234;2022-07-23T06:55:17;14.17;;;12.87;;
15151;SDS011;7676;50.900;6.234;2022-07-23T07:00:20;15.33;;;13.80;;
15151;SDS011;7676;50.900;6.234;2022-07-23T07:05:22;14.37;;;12.87;;
15151;SDS011;7676;50.900;6.234;2022-07-23T07:10:27;15.07;;;13.10;;
15151;SDS011;7676;50.900;6.234;2022-07-23T07:15:32;15.17;;;13.67;;
15151;SDS011;7676;50.900;6.234;2022-07-23T07:20:35;14.97;;;13.47;;
15151;SDS011;7676;50.900;6.234;2022-07-23T07:25:37;15.47;;;14.07;;
15151;SDS011;7676;50.900;6.234;2022-07-23T07:30:40;14.50;;;13.03;;
15151;SDS011;7676;50.900;6.234;2022-07-23T07:35:43;14.97;;;13.47;;
15151;SDS011;7676;50.900;6.234;2022-07-23T07:40:46;15.80;;;14.20;;
15151;SDS011;7676;50.900;6.234;2022-07-23T07:45:48;17.43;;;15.40;;
15151;SDS011;7676;50.900;6.234;2022-07-23T07:50:52;16.63;;;14.97;;
15151;SDS011;7676;50.900;6.234;2022-07-23T07:55:54;15.67;;;14.03;;
15151;SDS011;7676;50.900;6.234;2022-07-23T08:00:57;16.43;;;14.83;;
15151;SDS011;7676;50.900;6.234;2022-07-23T08:05:59;14.80;;;13.30;;
15151;SDS011;7676;50.900;6.234;2022-07-23T08:11:04;14.70;;;13.27;;
15151;SDS011;7676;50.900;6.234;2022-07-23T08:16:07;13.93;;;12.63;;
15151;SDS011;7676;50.900;6.234;2022-07-23T08:21:09;16.63;;;14.93;;
15151;SDS011;7676;50.900;6.234;2022-07-23T08:26:13;13.07;;;11.77;;
15151;SDS011;7676;50.900;6.234;2022-07-23T08:31:15;11.53;;;10.43;;
15151;SDS011;7676;50.900;6.234;2022-07-23T08:36:19;12.87;;;11.57;;
15151;SDS011;7676;50.900;6.234;2022-07-23T08:41:22;11.00;;;9.90;;
15151;SDS011;7676;50.900;6.234;2022-07-23T08:46:26;11.40;;;10.20;;
15151;SDS011;7676;50.900;6.234;2022-07-23T08:51:39;9.50;;;8.67;;
15151;SDS011;7676;50.900;6.234;2022-07-23T08:56:46;10.43;;;9.40;;
15151;SDS011;7676;50.900;6.234;2022-07-23T09:01:49;10.57;;;8.33;;
15151;SDS011;7676;50.900;6.234;2022-07-23T09:06:52;12.10;;;10.90;;
15151;SDS011;7676;50.900;6.234;2022-07-23T09:17:25;10.83;;;9.27;;
15151;SDS011;7676;50.900;6.234;2022-07-23T09:22:28;8.47;;;7.37;;
15151;SDS011;7676;50.900;6.234;2022-07-23T09:38:14;10.57;;;9.53;;
15151;SDS011;7676;50.900;6.234;2022-07-23T09:43:27;10.30;;;9.30;;
15151;SDS011;7676;50.900;6.234;2022-07-23T09:48:36;9.60;;;8.70;;
15151;SDS011;7676;50.900;6.234;2022-07-23T09:53:38;9.20;;;8.30;;
15151;SDS011;7676;50.900;6.234;2022-07-23T09:58:41;8.33;;;7.53;;
15151;SDS011;7676;50.900;6.234;2022-07-23T10:03:49;8.93;;;7.97;;
15151;SDS011;7676;50.900;6.234;2022-07-23T10:09:11;9.83;;;8.77;;
15151;SDS011;7676;50.900;6.234;2022-07-23T10:14:43;6.90;;;6.20;;
15151;SDS011;7676;50.900;6.234;2022-07-23T10:19:46;7.13;;;6.43;;
15151;SDS011;7676;50.900;6.234;2022-07-23T10:30:02;6.33;;;5.73;;
15151;SDS011;7676;50.900;6.234;2022-07-23T10:40:13;8.17;;;6.87;;
15151;SDS011;7676;50.900;6.234;2022-07-23T10:45:34;7.40;;;5.90;;
15151;SDS011;7676;50.900;6.234;2022-07-23T10:50:39;4.10;;;3.70;;
15151;SDS011;7676;50.900;6.234;2022-07-23T10:55:46;3.90;;;3.40;;
15151;SDS011;7676;50.900;6.234;2022-07-23T11:00:49;5.30;;;4.30;;
15151;SDS011;7676;50.900;6.234;2022-07-23T11:05:52;4.00;;;3.47;;
15151;SDS011;7676;50.900;6.234;2022-07-23T11:37:39;5.00;;;3.80;;
15151;SDS011;7676;50.900;6.234;2022-07-23T11:47:55;3.57;;;3.27;;
15151;SDS011;7676;50.900;6.234;2022-07-23T11:52:58;5.00;;;4.27;;
15151;SDS011;7676;50.900;6.234;2022-07-23T11:58:00;3.60;;;3.13;;
15151;SDS011;7676;50.900;6.234;2022-07-23T12:03:03;3.83;;;3.47;;
15151;SDS011;7676;50.900;6.234;2022-07-23T12:08:08;3.03;;;2.83;;
15151;SDS011;7676;50.900;6.234;2022-07-23T12:13:13;3.30;;;3.00;;
15151;SDS011;7676;50.900;6.234;2022-07-23T12:18:22;3.60;;;3.30;;
15151;SDS011;7676;50.900;6.234;2022-07-23T12:23:26;3.17;;;2.80;;
15151;SDS011;7676;50.900;6.234;2022-07-23T12:28:33;3.33;;;2.90;;
15151;SDS011;7676;50.900;6.234;2022-07-23T12:33:39;3.80;;;3.40;;
15151;SDS011;7676;50.900;6.234;2022-07-23T12:38:42;4.22;;;3.83;;
15151;SDS011;7676;50.900;6.234;2022-07-23T12:43:49;2.97;;;2.75;;
15151;SDS011;7676;50.900;6.234;2022-07-23T12:48:52;4.13;;;3.73;;
15151;SDS011;7676;50.900;6.234;2022-07-23T12:53:57;3.33;;;3.03;;
15151;SDS011;7676;50.900;6.234;2022-07-23T12:59:08;3.67;;;3.05;;
15151;SDS011;7676;50.900;6.234;2022-07-23T13:09:27;2.97;;;2.50;;
15151;SDS011;7676;50.900;6.234;2022-07-23T13:14:38;4.38;;;3.40;;
15151;SDS011;7676;50.900;6.234;2022-07-23T13:19:43;4.03;;;2.88;;
15151;SDS011;7676;50.900;6.234;2022-07-23T13:24:48;3.38;;;3.08;;
15151;SDS011;7676;50.900;6.234;2022-07-23T13:29:51;3.58;;;2.80;;
15151;SDS011;7676;50.900;6.234;2022-07-23T13:34:54;3.92;;;3.30;;
15151;SDS011;7676;50.900;6.234;2022-07-23T13:39:58;3.70;;;2.70;;
15151;SDS011;7676;50.900;6.234;2022-07-23T13:45:03;2.60;;;2.40;;
15151;SDS011;7676;50.900;6.234;2022-07-23T13:50:15;3.00;;;2.70;;
15151;SDS011;7676;50.900;6.234;2022-07-23T13:55:22;3.83;;;2.78;;
15151;SDS011;7676;50.900;6.234;2022-07-23T14:00:28;3.20;;;2.80;;
15151;SDS011;7676;50.900;6.234;2022-07-23T14:05:54;2.60;;;2.40;;
15151;SDS011;7676;50.900;6.234;2022-07-23T14:10:57;2.60;;;2.40;;
15151;SDS011;7676;50.900;6.234;2022-07-23T14:16:01;3.20;;;2.95;;
15151;SDS011;7676;50.900;6.234;2022-07-23T14:21:08;2.63;;;2.42;;
15151;SDS011;7676;50.900;6.234;2022-07-23T14:26:11;2.70;;;2.50;;
15151;SDS011;7676;50.900;6.234;2022-07-23T14:31:16;3.70;;;2.60;;
15151;SDS011;7676;50.900;6.234;2022-07-23T14:36:22;4.13;;;2.67;;
15151;SDS011;7676;50.900;6.234;2022-07-23T14:41:26;2.93;;;2.40;;
15151;SDS011;7676;50.900;6.234;2022-07-23T14:46:37;2.83;;;2.40;;
15151;SDS011;7676;50.900;6.234;2022-07-23T14:51:44;2.70;;;2.50;;
15151;SDS011;7676;50.900;6.234;2022-07-23T14:56:46;3.10;;;2.53;;
15151;SDS011;7676;50.900;6.234;2022-07-23T15:01:49;3.60;;;2.50;;
15151;SDS011;7676;50.900;6.234;2022-07-23T15:06:54;2.77;;;2.40;;
15151;SDS011;7676;50.900;6.234;2022-07-23T15:11:57;2.55;;;2.35;;
15151;SDS011;7676;50.900;6.234;2022-07-23T15:17:00;3.20;;;2.47;;
15151;SDS011;7676;50.900;6.234;2022-07-23T15:22:02;2.65;;;2.40;;
15151;SDS011;7676;50.900;6.234;2022-07-23T15:27:07;2.63;;;2.23;;
15151;SDS011;7676;50.900;6.234;2022-07-23T15:32:10;2.77;;;2.53;;
15151;SDS011;7676;50.900;6.234;2022-07-23T15:37:15;3.10;;;2.60;;
15151;SDS011;7676;50.900;6.234;2022-07-23T15:42:18;3.00;;;2.17;;
15151;SDS011;7676;50.900;6.234;2022-07-23T15:47:21;3.47;;;2.42;;
15151;SDS011;7676;50.900;6.234;2022-07-23T15:52:26;3.92;;;2.63;;
15151;SDS011;7676;50.900;6.234;2022-07-23T15:57:30;3.50;;;3.20;;
15151;SDS011;7676;50.900;6.234;2022-07-23T16:02:36;3.97;;;2.47;;
15151;SDS011;7676;50.900;6.234;2022-07-23T16:07:39;2.70;;;2.47;;
15151;SDS011;7676;50.900;6.234;2022-07-23T16:12:41;2.88;;;2.67;;
15151;SDS011;7676;50.900;6.234;2022-07-23T16:17:44;2.70;;;2.50;;
15151;SDS011;7676;50.900;6.234;2022-07-23T16:22:48;2.90;;;2.70;;
15151;SDS011;7676;50.900;6.234;2022-07-23T16:27:50;3.07;;;2.80;;
15151;SDS011;7676;50.900;6.234;2022-07-23T16:32:53;2.57;;;2.37;;
15151;SDS011;7676;50.900;6.234;2022-07-23T16:37:56;4.40;;;2.60;;
15151;SDS011;7676;50.900;6.234;2022-07-23T16:43:03;2.75;;;2.55;;
15151;SDS011;7676;50.900;6.234;2022-07-23T16:48:05;3.07;;;2.77;;
15151;SDS011;7676;50.900;6.234;2022-07-23T16:53:10;3.43;;;3.10;;
15151;SDS011;7676;50.900;6.234;2022-07-23T16:58:16;3.23;;;2.90;;
15151;SDS011;7676;50.900;6.234;2022-07-23T17:03:18;3.00;;;2.80;;
15151;SDS011;7676;50.900;6.234;2022-07-23T17:08:22;3.27;;;2.70;;
15151;SDS011;7676;50.900;6.234;2022-07-23T17:13:28;3.00;;;2.70;;
15151;SDS011;7676;50.900;6.234;2022-07-23T17:18:31;2.90;;;2.70;;
15151;SDS011;7676;50.900;6.234;2022-07-23T17:23:33;3.00;;;2.73;;
15151;SDS011;7676;50.900;6.234;2022-07-23T17:28:36;3.00;;;2.80;;
15151;SDS011;7676;50.900;6.234;2022-07-23T17:33:39;3.33;;;2.90;;
15151;SDS011;7676;50.900;6.234;2022-07-23T17:38:42;3.00;;;2.70;;
15151;SDS011;7676;50.900;6.234;2022-07-23T17:43:45;3.40;;;2.73;;
15151;SDS011;7676;50.900;6.234;2022-07-23T17:48:48;3.20;;;2.90;;
15151;SDS011;7676;50.900;6.234;2022-07-23T17:53:51;3.10;;;2.90;;
15151;SDS011;7676;50.900;6.234;2022-07-23T17:58:54;2.83;;;2.63;;
15151;SDS011;7676;50.900;6.234;2022-07-23T18:03:56;3.20;;;2.90;;
15151;SDS011;7676;50.900;6.234;2022-07-23T18:09:00;3.10;;;2.80;;
15151;SDS011;7676;50.900;6.234;2022-07-23T18:14:08;3.07;;;2.77;;
15151;SDS011;7676;50.900;6.234;2022-07-23T18:19:11;3.07;;;2.77;;
15151;SDS011;7676;50.900;6.234;2022-07-23T18:24:14;2.87;;;2.67;;
15151;SDS011;7676;50.900;6.234;2022-07-23T18:29:17;2.90;;;2.70;;
15151;SDS011;7676;50.900;6.234;2022-07-23T18:34:20;2.83;;;2.57;;
15151;SDS011;7676;50.900;6.234;2022-07-23T18:39:26;2.67;;;2.47;;
15151;SDS011;7676;50.900;6.234;2022-07-23T18:44:30;2.77;;;2.57;;
15151;SDS011;7676;50.900;6.234;2022-07-23T18:49:41;2.90;;;2.70;;
15151;SDS011;7676;50.900;6.234;2022-07-23T18:54:44;2.80;;;2.60;;
15151;SDS011;7676;50.900;6.234;2022-07-23T18:59:46;3.17;;;2.87;;
15151;SDS011;7676;50.900;6.234;2022-07-23T19:04:49;3.77;;;3.47;;
15151;SDS011;7676;50.900;6.234;2022-07-23T19:09:52;3.03;;;2.80;;
15151;SDS011;7676;50.900;6.234;2022-07-23T19:14:54;3.30;;;2.80;;
15151;SDS011;7676;50.900;6.234;2022-07-23T19:19:57;3.10;;;2.80;;
15151;SDS011;7676;50.900;6.234;2022-07-23T19:25:00;4.70;;;3.53;;
15151;SDS011;7676;50.900;6.234;2022-07-23T19:30:04;3.17;;;2.87;;
15151;SDS011;7676;50.900;6.234;2022-07-23T19:35:08;2.90;;;2.70;;
15151;SDS011;7676;50.900;6.234;2022-07-23T19:40:11;3.80;;;2.50;;
15151;SDS011;7676;50.900;6.234;2022-07-23T19:45:14;3.00;;;2.77;;
15151;SDS011;7676;50.900;6.234;2022-07-23T19:50:16;4.40;;;3.00;;
15151;SDS011;7676;50.900;6.234;2022-07-23T19:55:19;3.20;;;2.90;;
15151;SDS011;7676;50.900;6.234;2022-07-23T20:00:23;2.90;;;2.70;;
15151;SDS011;7676;50.900;6.234;2022-07-23T20:05:25;11.20;;;10.20;;
15151;SDS011;7676;50.900;6.234;2022-07-23T20:10:28;4.10;;;3.80;;
15151;SDS011;7676;50.900;6.234;2022-07-23T20:15:30;3.40;;;3.10;;
15151;SDS011;7676;50.900;6.234;2022-07-23T20:20:33;3.97;;;3.23;;
15151;SDS011;7676;50.900;6.234;2022-07-23T20:25:36;5.00;;;4.50;;
15151;SDS011;7676;50.900;6.234;2022-07-23T20:30:41;6.20;;;4.63;;
15151;SDS011;7676;50.900;6.234;2022-07-23T20:35:47;4.40;;;4.00;;
15151;SDS011;7676;50.900;6.234;2022-07-23T20:40:50;4.20;;;3.80;;
15151;SDS011;7676;50.900;6.234;2022-07-23T20:45:53;3.67;;;3.37;;
15151;SDS011;7676;50.900;6.234;2022-07-23T20:50:56;4.07;;;3.07;;
15151;SDS011;7676;50.900;6.234;2022-07-23T20:55:58;3.60;;;3.30;;
15151;SDS011;7676;50.900;6.234;2022-07-23T21:01:01;5.60;;;2.93;;
15151;SDS011;7676;50.900;6.234;2022-07-23T21:06:04;3.83;;;3.40;;
15151;SDS011;7676;50.900;6.234;2022-07-23T21:11:08;3.60;;;3.30;;
15151;SDS011;7676;50.900;6.234;2022-07-23T21:16:11;3.60;;;3.30;;
15151;SDS011;7676;50.900;6.234;2022-07-23T21:21:13;3.13;;;2.93;;
15151;SDS011;7676;50.900;6.234;2022-07-23T21:26:16;4.20;;;3.30;;
15151;SDS011;7676;50.900;6.234;2022-07-23T21:31:35;3.97;;;2.77;;
15151;SDS011;7676;50.900;6.234;2022-07-23T21:36:38;3.73;;;3.27;;
15151;SDS011;7676;50.900;6.234;2022-07-23T21:41:41;3.60;;;2.90;;
15151;SDS011;7676;50.900;6.234;2022-07-23T21:46:44;3.30;;;3.00;;
15151;SDS011;7676;50.900;6.234;2022-07-23T21:51:47;4.70;;;2.77;;
15151;SDS011;7676;50.900;6.234;2022-07-23T21:56:50;5.20;;;3.40;;
15151;SDS011;7676;50.900;6.234;2022-07-23T22:01:52;3.73;;;3.40;;
15151;SDS011;7676;50.900;6.234;2022-07-23T22:06:55;4.80;;;4.40;;
15151;SDS011;7676;50.900;6.234;2022-07-23T22:11:59;4.60;;;4.17;;
15151;SDS011;7676;50.900;6.234;2022-07-23T22:17:01;4.40;;;4.00;;
15151;SDS011;7676;50.900;6.234;2022-07-23T22:22:04;5.13;;;4.63;;
15151;SDS011;7676;50.900;6.234;2022-07-23T22:27:07;4.93;;;4.43;;
15151;SDS011;7676;50.900;6.234;2022-07-23T22:32:09;3.90;;;3.60;;
15151;SDS011;7676;50.900;6.234;2022-07-23T22:37:12;4.20;;;3.83;;
15151;SDS011;7676;50.900;6.234;2022-07-23T22:42:15;4.33;;;3.87;;
15151;SDS011;7676;50.900;6.234;2022-07-23T22:47:17;4.50;;;4.10;;
15151;SDS011;7676;50.900;6.234;2022-07-23T22:52:20;4.30;;;3.90;;
15151;SDS011;7676;50.900;6.234;2022-07-23T22:57:23;4.03;;;3.63;;
15151;SDS011;7676;50.900;6.234;2022-07-23T23:02:25;4.43;;;4.03;;
15151;SDS011;7676;50.900;6.234;2022-07-23T23:07:29;4.57;;;4.13;;
15151;SDS011;7676;50.900;6.234;2022-07-23T23:12:31;5.53;;;5.00;;
15151;SDS011;7676;50.900;6.234;2022-07-23T23:17:34;4.67;;;4.27;;
15151;SDS011;7676;50.900;6.234;2022-07-23T23:22:37;4.80;;;4.03;;
15151;SDS011;7676;50.900;6.234;2022-07-23T23:27:46;4.00;;;3.47;;
15151;SDS011;7676;50.900;6.234;2022-07-23T23:32:49;4.37;;;4.07;;
15151;SDS011;7676;50.900;6.234;2022-07-23T23:37:51;4.70;;;4.30;;
15151;SDS011;7676;50.900;6.234;2022-07-23T23:42:54;5.37;;;4.73;;
15151;SDS011;7676;50.900;6.234;2022-07-23T23:47:56;5.07;;;4.63;;
15151;SDS011;7676;50.900;6.234;2022-07-23T23:52:58;4.87;;;4.40;;
15151;SDS011;7676;50.900;6.234;2022-07-23T23:58:01;4.90;;;4.47;;
